createdAt,value
2023-03-06T00:00:19.457Z,29.75
2023-03-06T00:01:18.552Z,29.73
2023-03-06T00:02:15.126Z,29.23
2023-03-06T00:03:11.834Z,37.28
2023-03-06T00:04:08.656Z,28.70
2023-03-06T00:05:05.496Z,36.70
2023-03-06T00:06:02.447Z,28.13
2023-03-06T00:06:59.122Z,27.83
2023-03-06T00:07:55.798Z,24.15
2023-03-06T00:08:52.454Z,26.00
2023-03-06T00:09:49.038Z,27.48
2023-03-06T00:10:46.048Z,24.35
2023-03-06T00:11:42.621Z,27.02
2023-03-06T00:12:39.287Z,28.45
2023-03-06T00:13:35.876Z,28.77
2023-03-06T00:14:32.419Z,26.77
2023-03-06T00:15:29.448Z,28.02
2023-03-06T00:16:26.095Z,28.88
2023-03-06T00:17:22.826Z,29.90
2023-03-06T00:18:19.401Z,27.70
2023-03-06T00:19:16.016Z,27.17
2023-03-06T00:20:13.419Z,24.60
2023-03-06T00:21:10.113Z,28.42
2023-03-06T00:22:06.709Z,27.20
2023-03-06T00:23:03.619Z,27.83
2023-03-06T00:24:00.227Z,26.95
2023-03-06T00:24:57.012Z,29.88
2023-03-06T00:25:53.688Z,29.77
2023-03-06T00:26:50.965Z,29.02
2023-03-06T00:27:48.254Z,27.15
2023-03-06T00:28:44.960Z,24.50
2023-03-06T00:29:41.578Z,24.20
2023-03-06T00:30:38.235Z,26.48
2023-03-06T00:31:36.005Z,25.67
2023-03-06T00:32:32.665Z,28.60
2023-03-06T00:33:29.504Z,25.45
2023-03-06T00:34:26.119Z,24.17
2023-03-06T00:35:22.890Z,25.05
2023-03-06T00:36:19.556Z,24.60
2023-03-06T00:37:16.333Z,23.42
2023-03-06T00:38:13.517Z,27.05
2023-03-06T00:39:10.138Z,25.33
2023-03-06T00:40:12.897Z,20.30
2023-03-06T00:41:13.265Z,25.75
2023-03-06T00:42:10.017Z,26.48
2023-03-06T00:43:06.619Z,26.73
2023-03-06T00:44:03.333Z,29.55
2023-03-06T00:44:59.893Z,26.23
2023-03-06T00:45:56.512Z,25.75
2023-03-06T00:46:53.195Z,26.05
2023-03-06T00:47:49.859Z,21.50
2023-03-06T00:48:46.578Z,33.28
2023-03-06T00:49:44.870Z,28.67
2023-03-06T00:50:41.449Z,29.40
2023-03-06T00:51:38.107Z,25.63
2023-03-06T00:52:35.044Z,25.58
2023-03-06T00:53:31.738Z,33.97
2023-03-06T00:54:28.295Z,29.00
2023-03-06T00:55:24.925Z,25.77
2023-03-06T00:56:21.598Z,26.67
2023-03-06T00:57:18.208Z,25.15
2023-03-06T00:58:14.837Z,31.50
2023-03-06T00:59:11.739Z,26.15
2023-03-06T01:00:10.575Z,25.88
2023-03-06T01:01:07.352Z,29.83
2023-03-06T01:02:04.740Z,28.75
2023-03-06T01:03:01.347Z,24.92
2023-03-06T01:03:57.948Z,30.58
2023-03-06T01:04:54.724Z,27.60
2023-03-06T01:05:52.022Z,28.48
2023-03-06T01:06:49.521Z,27.67
2023-03-06T01:07:46.884Z,25.98
2023-03-06T01:08:43.470Z,23.98
2023-03-06T01:09:40.041Z,27.92
2023-03-06T01:10:40.678Z,24.98
2023-03-06T01:11:37.407Z,29.58
2023-03-06T01:12:37.142Z,29.90
2023-03-06T01:13:33.757Z,28.90
2023-03-06T01:14:31.506Z,29.00
2023-03-06T01:15:28.168Z,27.35
2023-03-06T01:16:24.857Z,24.85
2023-03-06T01:17:21.550Z,24.95
2023-03-06T01:18:18.440Z,29.38
2023-03-06T01:19:15.483Z,29.58
2023-03-06T01:20:15.653Z,26.30
2023-03-06T01:21:13.422Z,28.05
2023-03-06T01:22:10.012Z,27.48
2023-03-06T01:23:06.610Z,30.65
2023-03-06T01:24:03.228Z,26.38
2023-03-06T01:24:59.806Z,26.50
2023-03-06T01:25:56.661Z,27.10
2023-03-06T01:26:53.324Z,26.17
2023-03-06T01:27:49.889Z,26.10
2023-03-06T01:28:46.470Z,29.27
2023-03-06T01:29:43.058Z,26.55
2023-03-06T01:30:39.726Z,29.00
2023-03-06T01:31:36.349Z,26.17
2023-03-06T01:32:33.371Z,29.15
2023-03-06T01:33:30.280Z,25.38
2023-03-06T01:34:26.952Z,28.25
2023-03-06T01:35:23.618Z,22.88
2023-03-06T01:36:20.276Z,25.38
2023-03-06T01:37:17.231Z,28.27
2023-03-06T01:38:14.017Z,28.15
2023-03-06T01:39:10.761Z,29.42
2023-03-06T01:40:09.267Z,29.20
2023-03-06T01:41:06.563Z,28.52
2023-03-06T01:42:03.765Z,22.98
2023-03-06T01:43:25.487Z,29.95
2023-03-06T01:44:22.160Z,26.83
2023-03-06T01:45:18.700Z,28.65
2023-03-06T01:46:21.173Z,27.20
2023-03-06T01:47:17.830Z,26.40
2023-03-06T01:48:14.579Z,24.05
2023-03-06T01:49:14.170Z,27.13
2023-03-06T01:50:12.020Z,27.65
2023-03-06T01:51:09.065Z,26.52
2023-03-06T01:52:27.336Z,28.52
2023-03-06T01:53:24.499Z,36.97
2023-03-06T01:54:31.202Z,46.03
2023-03-06T01:55:33.858Z,32.20
2023-03-06T01:56:30.755Z,31.65
2023-03-06T01:57:41.082Z,36.97
2023-03-06T01:58:38.419Z,29.33
2023-03-06T01:59:36.780Z,31.98
2023-03-06T02:00:33.660Z,27.70
2023-03-06T02:01:32.309Z,27.58
2023-03-06T02:02:29.584Z,28.25
2023-03-06T02:03:28.480Z,27.77
2023-03-06T02:04:25.240Z,26.98
2023-03-06T02:05:22.438Z,25.90
2023-03-06T02:06:21.813Z,26.42
2023-03-06T02:07:20.962Z,25.08
2023-03-06T02:08:19.682Z,25.17
2023-03-06T02:09:16.814Z,22.92
2023-03-06T02:10:15.001Z,27.00
2023-03-06T02:11:17.357Z,25.23
2023-03-06T02:13:13.053Z,29.42
2023-03-06T02:14:13.128Z,26.13
2023-03-06T02:15:11.949Z,28.23
2023-03-06T02:16:10.220Z,23.80
2023-03-06T02:17:09.961Z,21.27
2023-03-06T02:18:06.772Z,24.05
2023-03-06T02:19:07.186Z,24.15
2023-03-06T02:20:39.561Z,22.88
2023-03-06T02:21:37.726Z,24.77
2023-03-06T02:23:56.185Z,25.38
2023-03-06T02:25:07.938Z,29.80
2023-03-06T02:26:06.566Z,26.38
2023-03-06T02:27:04.548Z,23.85
2023-03-06T02:28:02.346Z,25.95
2023-03-06T02:28:59.440Z,26.70
2023-03-06T02:29:56.116Z,25.40
2023-03-06T02:30:54.493Z,24.00
2023-03-06T02:31:51.185Z,23.15
2023-03-06T02:32:47.856Z,27.95
2023-03-06T02:33:44.453Z,23.27
2023-03-06T02:34:40.989Z,28.60
2023-03-06T02:35:39.262Z,25.45
2023-03-06T02:36:40.275Z,23.33
2023-03-06T02:37:36.880Z,27.05
2023-03-06T02:38:40.734Z,22.40
2023-03-06T02:39:46.786Z,26.40
2023-03-06T02:40:46.916Z,24.13
2023-03-06T02:41:43.580Z,23.75
2023-03-06T02:42:49.816Z,26.20
2023-03-06T02:43:48.096Z,25.27
2023-03-06T02:44:44.791Z,27.23
2023-03-06T02:45:45.549Z,23.70
2023-03-06T02:46:42.169Z,23.80
2023-03-06T02:47:38.783Z,25.48
2023-03-06T02:48:35.374Z,20.60
2023-03-06T02:49:31.986Z,26.25
2023-03-06T02:50:28.784Z,27.00
2023-03-06T02:51:26.178Z,26.10
2023-03-06T02:52:22.946Z,23.35
2023-03-06T02:53:21.014Z,22.77
2023-03-06T02:54:20.396Z,27.83
2023-03-06T02:55:17.101Z,26.30
2023-03-06T02:56:15.176Z,25.67
2023-03-06T02:57:12.110Z,27.45
2023-03-06T02:58:09.689Z,29.77
2023-03-06T02:59:06.408Z,24.73
2023-03-06T03:00:03.859Z,23.92
2023-03-06T03:01:00.519Z,24.30
2023-03-06T03:01:57.142Z,24.20
2023-03-06T03:02:54.102Z,21.98
2023-03-06T03:03:50.787Z,21.65
2023-03-06T03:04:47.422Z,22.58
2023-03-06T03:05:44.108Z,23.00
2023-03-06T03:06:40.662Z,25.08
2023-03-06T03:07:37.396Z,26.40
2023-03-06T03:08:34.566Z,24.00
2023-03-06T03:09:36.772Z,21.77
2023-03-06T03:10:33.416Z,23.58
2023-03-06T03:11:29.980Z,23.88
2023-03-06T03:12:28.651Z,27.27
2023-03-06T03:13:25.453Z,21.83
2023-03-06T03:14:24.576Z,28.00
2023-03-06T03:15:21.361Z,25.13
2023-03-06T03:16:18.021Z,23.98
2023-03-06T03:17:14.831Z,25.77
2023-03-06T03:18:12.138Z,21.02
2023-03-06T03:19:08.775Z,24.13
2023-03-06T03:20:07.735Z,26.33
2023-03-06T03:21:08.498Z,41.13
2023-03-06T03:22:05.494Z,27.92
2023-03-06T03:23:02.185Z,22.27
2023-03-06T03:23:58.832Z,20.83
2023-03-06T03:24:55.510Z,26.27
2023-03-06T03:25:52.746Z,25.60
2023-03-06T03:26:49.340Z,26.45
2023-03-06T03:27:46.029Z,27.60
2023-03-06T03:28:42.711Z,23.35
2023-03-06T03:29:39.702Z,24.13
2023-03-06T03:30:36.371Z,27.17
2023-03-06T03:31:33.268Z,23.92
2023-03-06T03:32:29.931Z,25.38
2023-03-06T03:33:26.561Z,25.65
2023-03-06T03:34:23.165Z,24.00
2023-03-06T03:35:19.862Z,30.65
2023-03-06T03:36:16.467Z,27.15
2023-03-06T03:37:13.061Z,27.65
2023-03-06T03:38:09.724Z,29.25
2023-03-06T03:39:06.629Z,26.27
2023-03-06T03:40:05.185Z,24.65
2023-03-06T03:41:02.682Z,24.27
2023-03-06T03:41:59.473Z,23.45
2023-03-06T03:42:56.060Z,26.33
2023-03-06T03:43:52.775Z,28.58
2023-03-06T03:44:49.330Z,28.85
2023-03-06T03:45:46.048Z,26.40
2023-03-06T03:46:42.644Z,28.20
2023-03-06T03:47:39.359Z,25.92
2023-03-06T03:48:35.969Z,30.45
2023-03-06T03:49:32.546Z,24.83
2023-03-06T03:50:29.139Z,28.02
2023-03-06T03:51:25.685Z,27.48
2023-03-06T03:52:22.377Z,24.38
2023-03-06T03:53:18.966Z,31.17
2023-03-06T03:54:15.559Z,25.25
2023-03-06T03:55:12.189Z,23.33
2023-03-06T03:56:08.824Z,25.27
2023-03-06T03:57:05.547Z,24.83
2023-03-06T03:58:02.280Z,29.20
2023-03-06T03:58:58.947Z,25.75
2023-03-06T03:59:55.746Z,27.48
2023-03-06T04:00:52.471Z,26.25
2023-03-06T04:01:49.646Z,25.20
2023-03-06T04:02:46.685Z,28.05
2023-03-06T04:03:43.843Z,28.50
2023-03-06T04:04:40.883Z,27.92
2023-03-06T04:05:37.646Z,25.38
2023-03-06T04:06:34.320Z,26.67
2023-03-06T04:07:30.975Z,27.33
2023-03-06T04:08:27.851Z,27.52
2023-03-06T04:09:24.579Z,24.63
2023-03-06T04:10:21.259Z,27.50
2023-03-06T04:11:17.852Z,24.75
2023-03-06T04:12:14.460Z,26.17
2023-03-06T04:13:11.134Z,24.85
2023-03-06T04:14:09.742Z,27.55
2023-03-06T04:15:08.190Z,25.77
2023-03-06T04:16:04.962Z,28.50
2023-03-06T04:17:01.542Z,28.90
2023-03-06T04:17:58.393Z,23.90
2023-03-06T04:18:54.982Z,27.73
2023-03-06T04:19:51.770Z,28.25
2023-03-06T04:20:49.636Z,26.40
2023-03-06T04:21:46.321Z,29.55
2023-03-06T04:22:42.902Z,26.23
2023-03-06T04:23:39.541Z,26.45
2023-03-06T04:24:36.207Z,27.60
2023-03-06T04:25:32.801Z,23.45
2023-03-06T04:26:29.445Z,26.65
2023-03-06T04:27:26.093Z,23.60
2023-03-06T04:28:22.798Z,26.45
2023-03-06T04:29:19.532Z,26.83
2023-03-06T04:30:16.323Z,25.67
2023-03-06T04:31:13.796Z,24.42
2023-03-06T04:32:10.739Z,22.95
2023-03-06T04:33:07.577Z,23.63
2023-03-06T04:34:04.210Z,25.08
2023-03-06T04:35:00.940Z,25.05
2023-03-06T04:35:57.646Z,24.92
2023-03-06T04:36:54.328Z,23.77
2023-03-06T04:37:51.013Z,25.45
2023-03-06T04:38:47.732Z,25.23
2023-03-06T04:39:44.422Z,23.70
2023-03-06T04:40:44.479Z,22.13
2023-03-06T04:41:42.480Z,23.17
2023-03-06T04:42:39.331Z,24.13
2023-03-06T04:43:35.973Z,27.25
2023-03-06T04:44:32.664Z,24.05
2023-03-06T04:45:30.915Z,23.95
2023-03-06T04:46:27.548Z,25.08
2023-03-06T04:47:24.275Z,25.73
2023-03-06T04:48:20.905Z,25.80
2023-03-06T04:49:17.592Z,21.98
2023-03-06T04:50:14.367Z,25.30
2023-03-06T04:51:13.358Z,21.60
2023-03-06T04:52:09.930Z,23.95
2023-03-06T04:53:07.992Z,29.08
2023-03-06T04:54:05.367Z,20.48
2023-03-06T04:55:04.221Z,20.63
2023-03-06T04:56:00.884Z,21.98
2023-03-06T04:56:57.509Z,25.10
2023-03-06T04:57:54.240Z,23.77
2023-03-06T04:58:50.884Z,22.13
2023-03-06T04:59:47.419Z,24.25
2023-03-06T05:00:44.127Z,23.67
2023-03-06T05:01:40.821Z,23.75
2023-03-06T05:02:38.081Z,24.05
2023-03-06T05:03:34.678Z,21.52
2023-03-06T05:04:31.226Z,19.40
2023-03-06T05:05:28.965Z,26.17
2023-03-06T05:06:26.490Z,23.35
2023-03-06T05:07:23.205Z,22.38
2023-03-06T05:08:20.066Z,23.35
2023-03-06T05:09:16.950Z,24.98
2023-03-06T05:10:16.051Z,22.13
2023-03-06T05:11:12.690Z,23.70
2023-03-06T05:12:09.409Z,28.33
2023-03-06T05:13:06.155Z,22.88
2023-03-06T05:14:02.831Z,21.70
2023-03-06T05:14:59.523Z,29.27
2023-03-06T05:16:01.930Z,23.42
2023-03-06T05:17:56.569Z,23.90
2023-03-06T05:18:53.414Z,24.00
2023-03-06T05:19:49.998Z,21.98
2023-03-06T05:20:46.696Z,21.88
2023-03-06T05:21:43.340Z,23.10
2023-03-06T05:22:40.713Z,21.70
2023-03-06T05:23:38.662Z,23.35
2023-03-06T05:24:35.439Z,23.63
2023-03-06T05:25:32.233Z,22.02
2023-03-06T05:26:28.913Z,23.27
2023-03-06T05:27:25.692Z,19.38
2023-03-06T05:28:22.651Z,24.00
2023-03-06T05:29:19.368Z,22.58
2023-03-06T05:30:16.273Z,19.83
2023-03-06T05:31:12.925Z,20.75
2023-03-06T05:32:09.734Z,22.60
2023-03-06T05:33:06.675Z,21.42
2023-03-06T05:34:03.360Z,24.73
2023-03-06T05:35:00.058Z,21.45
2023-03-06T05:35:56.714Z,21.92
2023-03-06T05:36:53.263Z,24.25
2023-03-06T05:37:50.170Z,22.08
2023-03-06T05:38:46.955Z,21.30
2023-03-06T05:39:43.499Z,20.38
2023-03-06T05:40:44.292Z,25.80
2023-03-06T05:41:40.862Z,22.40
2023-03-06T05:42:37.616Z,27.60
2023-03-06T05:43:34.218Z,23.58
2023-03-06T05:44:33.078Z,23.70
2023-03-06T05:45:29.653Z,20.67
2023-03-06T05:46:26.524Z,20.80
2023-03-06T05:47:23.280Z,22.30
2023-03-06T05:48:19.879Z,20.25
2023-03-06T05:49:17.084Z,22.27
2023-03-06T05:50:14.841Z,19.83
2023-03-06T05:51:11.981Z,19.90
2023-03-06T05:52:09.026Z,20.48
2023-03-06T05:53:05.670Z,21.38
2023-03-06T05:54:02.417Z,23.50
2023-03-06T05:54:59.100Z,21.00
2023-03-06T05:56:00.055Z,21.60
2023-03-06T05:56:57.479Z,18.80
2023-03-06T05:57:54.151Z,21.25
2023-03-06T05:58:51.703Z,20.52
2023-03-06T05:59:50.025Z,35.78
2023-03-06T06:00:46.615Z,20.48
2023-03-06T06:01:43.312Z,19.55
2023-03-06T06:02:40.083Z,19.17
2023-03-06T06:03:36.815Z,20.67
2023-03-06T06:04:33.486Z,18.33
2023-03-06T06:05:30.241Z,51.30
2023-03-06T06:06:26.837Z,44.20
2023-03-06T06:07:23.442Z,36.92
2023-03-06T06:08:20.998Z,21.60
2023-03-06T06:09:17.537Z,25.27
2023-03-06T06:10:14.371Z,18.75
2023-03-06T06:11:12.834Z,28.40
2023-03-06T06:12:09.589Z,27.15
2023-03-06T06:13:06.434Z,21.55
2023-03-06T06:14:03.051Z,24.92
2023-03-06T06:14:59.657Z,17.67
2023-03-06T06:15:56.330Z,41.92
2023-03-06T06:16:53.646Z,25.08
2023-03-06T06:17:50.226Z,30.80
2023-03-06T06:18:46.837Z,23.30
2023-03-06T06:19:43.913Z,23.00
2023-03-06T06:20:40.541Z,26.10
2023-03-06T06:21:37.174Z,18.48
2023-03-06T06:22:36.829Z,23.55
2023-03-06T06:23:33.680Z,15.95
2023-03-06T06:24:31.933Z,20.10
2023-03-06T06:25:28.582Z,21.40
2023-03-06T06:26:25.200Z,29.75
2023-03-06T06:27:21.792Z,16.60
2023-03-06T06:28:18.427Z,17.88
2023-03-06T06:29:15.176Z,23.13
2023-03-06T06:30:13.045Z,19.73
2023-03-06T06:31:13.138Z,16.48
2023-03-06T06:32:09.871Z,20.17
2023-03-06T06:33:06.972Z,17.23
2023-03-06T06:34:07.613Z,16.88
2023-03-06T06:35:05.029Z,18.38
2023-03-06T06:36:01.807Z,18.92
2023-03-06T06:36:58.509Z,18.95
2023-03-06T06:37:55.127Z,25.60
2023-03-06T06:38:51.842Z,19.75
2023-03-06T06:39:48.632Z,18.23
2023-03-06T06:40:53.943Z,17.13
2023-03-06T06:42:26.184Z,15.43
2023-03-06T06:43:18.762Z,15.77
2023-03-06T06:44:16.219Z,17.20
2023-03-06T06:45:13.224Z,18.65
2023-03-06T06:46:38.784Z,18.90
2023-03-06T06:47:26.614Z,19.13
2023-03-06T06:48:23.291Z,21.52
2023-03-06T06:49:20.019Z,16.95
2023-03-06T06:50:16.852Z,21.15
2023-03-06T06:51:13.484Z,17.35
2023-03-06T06:52:10.656Z,18.15
2023-03-06T06:53:07.309Z,18.60
2023-03-06T06:54:04.000Z,16.52
2023-03-06T06:55:00.696Z,20.70
2023-03-06T06:56:00.476Z,17.38
2023-03-06T06:56:57.216Z,17.38
2023-03-06T06:57:53.948Z,21.08
2023-03-06T06:59:01.334Z,21.27
2023-03-06T07:00:07.870Z,28.27
2023-03-06T07:01:09.882Z,23.58
2023-03-06T07:02:08.259Z,21.88
2023-03-06T07:03:04.900Z,22.67
2023-03-06T07:04:01.512Z,17.58
2023-03-06T07:05:05.851Z,18.40
2023-03-06T07:06:02.951Z,23.15
2023-03-06T07:06:59.999Z,34.42
2023-03-06T07:07:56.697Z,32.30
2023-03-06T07:08:53.351Z,25.02
2023-03-06T07:09:50.264Z,21.42
2023-03-06T07:10:46.872Z,25.45
2023-03-06T07:11:43.510Z,24.60
2023-03-06T07:12:40.170Z,21.77
2023-03-06T07:13:36.789Z,27.98
2023-03-06T07:14:33.466Z,24.58
2023-03-06T07:15:30.882Z,22.77
2023-03-06T07:16:27.696Z,19.90
2023-03-06T07:17:24.332Z,22.90
2023-03-06T07:18:20.911Z,22.25
2023-03-06T07:19:17.545Z,21.67
2023-03-06T07:20:14.241Z,22.50
2023-03-06T07:21:11.699Z,23.15
2023-03-06T07:22:08.527Z,19.98
2023-03-06T07:23:08.518Z,20.85
2023-03-06T07:24:05.566Z,30.40
2023-03-06T07:25:03.456Z,22.17
2023-03-06T07:26:00.211Z,20.88
2023-03-06T07:26:56.786Z,20.70
2023-03-06T07:27:54.753Z,20.08
2023-03-06T07:28:53.695Z,22.42
2023-03-06T07:29:50.674Z,19.98
2023-03-06T07:30:47.392Z,24.33
2023-03-06T07:31:44.533Z,20.55
2023-03-06T07:32:41.175Z,21.27
2023-03-06T07:33:38.939Z,30.75
2023-03-06T07:34:35.630Z,20.17
2023-03-06T07:35:32.286Z,18.98
2023-03-06T07:36:28.902Z,20.08
2023-03-06T07:37:25.601Z,17.80
2023-03-06T07:38:22.267Z,26.35
2023-03-06T07:39:18.906Z,26.50
2023-03-06T07:40:15.570Z,18.90
2023-03-06T07:41:13.752Z,21.50
2023-03-06T07:42:13.429Z,26.10
2023-03-06T07:43:19.171Z,30.05
2023-03-06T07:44:16.290Z,31.48
2023-03-06T07:45:13.314Z,23.20
2023-03-06T07:46:11.186Z,18.13
2023-03-06T07:47:07.943Z,23.25
2023-03-06T07:48:05.666Z,22.73
2023-03-06T07:49:03.204Z,21.80
2023-03-06T07:50:03.112Z,20.10
2023-03-06T07:51:02.307Z,18.63
2023-03-06T07:51:59.146Z,23.33
2023-03-06T07:52:55.765Z,19.10
2023-03-06T07:53:52.426Z,21.55
2023-03-06T07:54:49.421Z,21.85
2023-03-06T07:55:46.118Z,21.88
2023-03-06T07:56:42.686Z,27.67
2023-03-06T07:57:39.824Z,16.67
2023-03-06T07:58:38.206Z,18.92
2023-03-06T07:59:34.900Z,22.95
2023-03-06T08:00:31.555Z,28.42
2023-03-06T08:01:28.382Z,20.70
2023-03-06T08:02:25.054Z,20.50
2023-03-06T08:03:21.706Z,23.80
2023-03-06T08:04:18.365Z,20.83
2023-03-06T08:05:16.755Z,29.83
2023-03-06T08:06:19.433Z,26.95
2023-03-06T08:07:15.995Z,28.33
2023-03-06T08:08:12.667Z,21.88
2023-03-06T08:09:09.207Z,20.63
2023-03-06T08:10:06.135Z,22.75
2023-03-06T08:11:02.823Z,25.48
2023-03-06T08:11:59.412Z,25.15
2023-03-06T08:12:55.958Z,19.90
2023-03-06T08:13:53.094Z,21.70
2023-03-06T08:14:49.731Z,23.08
2023-03-06T08:15:49.530Z,21.25
2023-03-06T08:16:46.127Z,18.90
2023-03-06T08:17:42.841Z,26.83
2023-03-06T08:18:40.094Z,24.90
2023-03-06T08:19:36.742Z,21.73
2023-03-06T08:20:33.280Z,21.73
2023-03-06T08:21:30.011Z,26.58
2023-03-06T08:22:26.577Z,20.30
2023-03-06T08:23:23.366Z,24.17
2023-03-06T08:24:20.211Z,21.27
2023-03-06T08:25:16.812Z,22.40
2023-03-06T08:26:19.197Z,22.85
2023-03-06T08:27:15.808Z,20.65
2023-03-06T08:28:12.357Z,23.27
2023-03-06T08:29:10.814Z,27.70
2023-03-06T08:30:08.473Z,27.80
2023-03-06T08:31:25.226Z,20.90
2023-03-06T08:32:21.886Z,29.02
2023-03-06T08:33:18.479Z,23.05
2023-03-06T08:34:19.365Z,24.00
2023-03-06T08:35:16.067Z,21.67
2023-03-06T08:36:12.760Z,23.98
2023-03-06T08:37:09.504Z,23.55
2023-03-06T08:38:06.413Z,29.40
2023-03-06T08:39:03.717Z,21.48
2023-03-06T08:40:02.631Z,26.10
2023-03-06T08:40:59.263Z,23.92
2023-03-06T08:41:55.904Z,19.92
2023-03-06T08:42:52.462Z,25.45
2023-03-06T08:43:49.570Z,22.73
2023-03-06T08:44:46.248Z,19.98
2023-03-06T08:45:42.878Z,23.02
2023-03-06T08:46:40.084Z,23.92
2023-03-06T08:47:36.713Z,22.85
2023-03-06T08:48:33.396Z,25.20
2023-03-06T08:49:30.268Z,21.98
2023-03-06T08:50:26.973Z,23.13
2023-03-06T08:51:24.375Z,22.23
2023-03-06T08:52:21.120Z,24.33
2023-03-06T08:53:17.870Z,20.98
2023-03-06T08:54:14.806Z,24.15
2023-03-06T08:55:12.921Z,25.15
2023-03-06T08:56:29.378Z,20.63
2023-03-06T08:57:26.004Z,21.00
2023-03-06T08:58:22.675Z,22.50
2023-03-06T08:59:19.363Z,22.42
2023-03-06T09:00:16.675Z,21.55
2023-03-06T09:01:18.662Z,21.33
2023-03-06T09:02:15.379Z,23.08
2023-03-06T09:03:12.034Z,24.15
2023-03-06T09:04:11.554Z,20.60
2023-03-06T09:05:09.007Z,23.27
2023-03-06T09:06:05.963Z,25.25
2023-03-06T09:07:02.557Z,22.00
2023-03-06T09:07:59.219Z,25.42
2023-03-06T09:08:55.998Z,20.38
2023-03-06T09:09:56.512Z,24.77
2023-03-06T09:10:53.150Z,22.08
2023-03-06T09:11:51.257Z,21.60
2023-03-06T09:12:51.230Z,20.73
2023-03-06T09:13:48.777Z,20.15
2023-03-06T09:14:45.359Z,27.67
2023-03-06T09:15:41.964Z,27.55
2023-03-06T09:16:38.742Z,25.65
2023-03-06T09:17:35.390Z,24.75
2023-03-06T09:18:32.024Z,22.65
2023-03-06T09:19:28.627Z,20.10
2023-03-06T09:20:28.286Z,24.02
2023-03-06T09:21:26.246Z,24.70
2023-03-06T09:22:22.831Z,22.85
2023-03-06T09:23:19.393Z,25.98
2023-03-06T09:24:16.057Z,28.02
2023-03-06T09:25:13.998Z,25.67
2023-03-06T09:26:12.347Z,26.95
2023-03-06T09:27:08.946Z,24.00
2023-03-06T09:28:11.773Z,21.73
2023-03-06T09:29:08.836Z,24.30
2023-03-06T09:30:06.548Z,23.38
2023-03-06T09:31:11.070Z,18.80
2023-03-06T09:32:07.963Z,24.50
2023-03-06T09:33:04.689Z,22.45
2023-03-06T09:34:01.551Z,26.48
2023-03-06T09:34:58.189Z,20.50
2023-03-06T09:35:56.646Z,20.75
2023-03-06T09:36:57.197Z,25.63
2023-03-06T09:37:54.358Z,19.73
2023-03-06T09:39:47.643Z,26.13
2023-03-06T09:41:02.566Z,25.40
2023-03-06T09:41:59.497Z,20.95
2023-03-06T09:42:56.334Z,20.13
2023-03-06T09:43:57.995Z,21.65
2023-03-06T09:45:01.101Z,19.17
2023-03-06T09:45:59.023Z,19.48
2023-03-06T09:47:07.046Z,20.75
2023-03-06T09:48:15.672Z,19.55
2023-03-06T09:49:15.367Z,19.38
2023-03-06T09:50:11.977Z,27.50
2023-03-06T09:51:16.384Z,20.65
2023-03-06T09:52:34.260Z,21.55
2023-03-06T09:53:55.758Z,23.10
2023-03-06T09:54:55.556Z,21.92
2023-03-06T09:56:02.523Z,24.02
2023-03-06T09:56:59.291Z,29.05
2023-03-06T09:58:04.979Z,21.63
2023-03-06T09:59:13.518Z,22.20
2023-03-06T10:00:23.731Z,24.92
2023-03-06T10:01:25.868Z,22.13
2023-03-06T10:02:31.416Z,17.77
2023-03-06T10:03:33.315Z,22.88
2023-03-06T10:04:38.280Z,22.92
2023-03-06T10:06:02.606Z,22.83
2023-03-06T10:07:20.524Z,21.80
2023-03-06T10:08:47.200Z,22.65
2023-03-06T10:09:50.837Z,21.75
2023-03-06T10:11:07.188Z,22.48
2023-03-06T10:12:22.021Z,21.92
2023-03-06T10:13:28.267Z,18.75
2023-03-06T10:14:49.025Z,16.83
2023-03-06T10:15:48.154Z,16.55
2023-03-06T10:16:44.926Z,25.58
2023-03-06T10:17:42.855Z,20.15
2023-03-06T10:18:40.062Z,19.00
2023-03-06T10:19:40.140Z,20.75
2023-03-06T10:21:07.418Z,22.52
2023-03-06T10:22:52.607Z,18.35
2023-03-06T10:24:37.854Z,21.50
2023-03-06T10:26:01.137Z,16.88
2023-03-06T10:27:34.713Z,20.23
2023-03-06T10:28:47.721Z,21.13
2023-03-06T10:30:02.194Z,18.80
2023-03-06T10:31:09.432Z,23.75
2023-03-06T10:32:20.386Z,17.95
2023-03-06T10:33:20.069Z,21.42
2023-03-06T10:34:28.512Z,16.40
2023-03-06T10:35:30.824Z,22.75
2023-03-06T10:37:31.021Z,24.02
2023-03-06T10:38:38.437Z,22.98
2023-03-06T10:39:35.317Z,20.67
2023-03-06T10:40:54.354Z,20.20
2023-03-06T10:41:50.906Z,21.83
2023-03-06T10:42:47.506Z,23.80
2023-03-06T10:44:03.000Z,21.15
2023-03-06T10:45:25.819Z,23.02
2023-03-06T10:46:31.342Z,18.70
2023-03-06T10:47:30.789Z,20.13
2023-03-06T10:48:30.177Z,20.98
2023-03-06T10:49:37.515Z,21.55
2023-03-06T10:50:34.516Z,23.80
2023-03-06T10:51:32.052Z,22.00
2023-03-06T10:52:34.416Z,19.23
2023-03-06T10:53:30.950Z,16.90
2023-03-06T10:54:30.150Z,23.60
2023-03-06T10:55:30.327Z,21.67
2023-03-06T10:56:39.524Z,21.27
2023-03-06T10:57:36.143Z,19.08
2023-03-06T10:58:33.230Z,18.08
2023-03-06T10:59:29.967Z,20.13
2023-03-06T11:00:36.096Z,23.58
2023-03-06T11:01:32.928Z,20.92
2023-03-06T11:02:39.500Z,17.05
2023-03-06T11:03:37.087Z,17.25
2023-03-06T11:04:35.265Z,17.67
2023-03-06T11:05:31.947Z,17.27
2023-03-06T11:06:35.201Z,23.35
2023-03-06T11:07:34.592Z,20.55
2023-03-06T11:08:31.661Z,23.08
2023-03-06T11:09:28.386Z,19.02
2023-03-06T11:10:25.735Z,17.95
2023-03-06T11:11:36.728Z,22.92
2023-03-06T11:12:38.305Z,16.60
2023-03-06T11:13:38.586Z,17.25
2023-03-06T11:14:35.182Z,18.58
2023-03-06T11:15:32.199Z,17.75
2023-03-06T11:16:30.769Z,19.40
2023-03-06T11:17:29.801Z,17.52
2023-03-06T11:18:34.896Z,16.45
2023-03-06T11:19:32.835Z,18.02
2023-03-06T11:20:41.266Z,15.48
2023-03-06T11:22:00.050Z,16.48
2023-03-06T11:23:32.301Z,18.92
2023-03-06T11:24:40.562Z,17.27
2023-03-06T11:25:44.779Z,24.20
2023-03-06T11:26:50.970Z,18.33
2023-03-06T11:27:56.798Z,16.75
2023-03-06T11:29:17.369Z,18.30
2023-03-06T11:30:32.427Z,21.13
2023-03-06T11:31:33.743Z,15.45
2023-03-06T11:32:44.115Z,17.70
2023-03-06T11:34:04.446Z,18.05
2023-03-06T11:35:13.930Z,14.50
2023-03-06T11:36:18.882Z,16.65
2023-03-06T11:37:43.310Z,16.52
2023-03-06T11:38:49.455Z,15.25
2023-03-06T11:39:55.194Z,16.80
2023-03-06T11:41:02.662Z,17.10
2023-03-06T11:42:20.278Z,19.58
2023-03-06T11:44:05.029Z,16.42
2023-03-06T11:45:24.145Z,19.10
2023-03-06T11:46:26.383Z,15.75
2023-03-06T11:47:27.730Z,15.60
2023-03-06T11:48:43.906Z,16.00
2023-03-06T11:50:05.502Z,15.75
2023-03-06T11:51:15.020Z,15.18
2023-03-06T11:52:44.428Z,20.77
2023-03-06T11:53:41.749Z,14.50
2023-03-06T11:54:38.476Z,14.32
2023-03-06T11:55:56.344Z,21.98
2023-03-06T11:57:04.525Z,17.20
2023-03-06T11:58:19.930Z,16.48
2023-03-06T11:59:34.467Z,16.73
2023-03-06T12:00:57.050Z,13.27
2023-03-06T12:02:15.307Z,13.70
2023-03-06T12:03:47.588Z,12.50
2023-03-06T12:05:02.240Z,13.15
2023-03-06T12:06:09.845Z,18.23
2023-03-06T12:07:29.070Z,13.23
2023-03-06T12:08:31.481Z,12.88
2023-03-06T12:09:49.971Z,12.48
2023-03-06T12:10:54.439Z,11.70
2023-03-06T12:12:02.464Z,15.15
2023-03-06T12:13:27.364Z,14.77
2023-03-06T12:15:00.378Z,16.67
2023-03-06T12:16:15.326Z,15.43
2023-03-06T12:17:22.764Z,13.18
2023-03-06T12:18:50.185Z,16.52
2023-03-06T12:20:02.205Z,15.65
2023-03-06T12:21:15.465Z,13.45
2023-03-06T12:22:20.389Z,13.82
2023-03-06T12:23:16.912Z,15.77
2023-03-06T12:24:28.796Z,16.90
2023-03-06T12:25:34.228Z,14.50
2023-03-06T12:26:42.655Z,12.68
2023-03-06T12:27:58.906Z,13.80
2023-03-06T12:28:58.335Z,14.75
2023-03-06T12:30:04.258Z,13.65
2023-03-06T12:31:11.233Z,12.10
2023-03-06T12:32:29.027Z,15.48
2023-03-06T12:33:31.730Z,13.55
2023-03-06T12:35:52.251Z,13.52
2023-03-06T12:36:48.898Z,13.88
2023-03-06T12:37:51.560Z,13.90
2023-03-06T12:39:00.589Z,13.50
2023-03-06T12:40:13.597Z,12.90
2023-03-06T12:42:35.693Z,12.25
2023-03-06T12:43:50.840Z,14.85
2023-03-06T12:44:53.227Z,12.82
2023-03-06T12:47:23.777Z,13.13
2023-03-06T12:48:29.676Z,14.70
2023-03-06T12:49:38.772Z,15.50
2023-03-06T12:50:38.809Z,16.05
2023-03-06T12:51:36.253Z,15.90
2023-03-06T12:52:34.718Z,15.88
2023-03-06T12:53:32.708Z,14.57
2023-03-06T12:54:33.710Z,17.38
2023-03-06T12:55:50.364Z,15.43
2023-03-06T12:56:48.615Z,19.38
2023-03-06T12:57:48.127Z,12.95
2023-03-06T12:58:53.513Z,15.63
2023-03-06T12:59:50.684Z,18.13
2023-03-06T13:01:04.943Z,15.82
2023-03-06T13:02:18.075Z,16.02